Time;durP1;ratioP1;P1;durP2;ratioP2;P2;SDS_P1;SDS_P2;PMS_P1;PMS_P2;Temp;Humidity;BMP_temperature;BMP_pressure;BME280_temperature;BME280_humidity;BME280_pressure;Samples;Min_cycle;Max_cycle;Signal;HPM_P1;HPM_P2
2022/09/04 00:02:17;;;;;;;9.88;2.88;;;;;;;;;;5027577;28;20059;-64
2022/09/04 00:04:46;;;;;;;9.88;2.50;;;;;;;;;;5002913;28;20144;-62
2022/09/04 00:07:21;;;;;;;5.50;1.98;;;;;;;;;;5005544;28;20057;-63
2022/09/04 00:09:56;;;;;;;5.72;2.10;;;;;;;;;;4973373;28;20145;-62
2022/09/04 00:12:28;;;;;;;5.15;2.25;;;;;;;;;;4988634;28;20057;-63
2022/09/04 00:15:00;;;;;;;4.78;2.00;;;;;;;;;;5000452;28;20057;-62
2022/09/04 00:17:31;;;;;;;8.07;2.30;;;;;;;;;;5011344;28;20099;-62
2022/09/04 00:20:01;;;;;;;5.78;2.00;;;;;;;;;;5005237;28;20054;-56
2022/09/04 00:22:33;;;;;;;3.53;1.90;;;;;;;;;;5010909;28;20061;-57
2022/09/04 00:25:03;;;;;;;3.80;1.95;;;;;;;;;;5004880;28;20050;-61
2022/09/04 00:27:42;;;;;;;4.32;1.80;;;;;;;;;;4996653;28;20050;-65
2022/09/04 00:30:11;;;;;;;7.30;2.10;;;;;;;;;;5009370;28;20107;-64
2022/09/04 00:32:39;;;;;;;4.07;1.83;;;;;;;;;;4991783;28;20134;-59
2022/09/04 00:35:10;;;;;;;4.90;1.80;;;;;;;;;;4994366;28;20097;-62
2022/09/04 00:37:42;;;;;;;5.50;2.45;;;;;;;;;;4988085;28;20077;-62
2022/09/04 00:40:12;;;;;;;4.95;2.10;;;;;;;;;;4995548;28;20128;-56
2022/09/04 00:42:45;;;;;;;4.85;2.17;;;;;;;;;;4988969;28;20053;-60
2022/09/04 00:45:15;;;;;;;3.72;1.90;;;;;;;;;;4994312;28;20068;-64
2022/09/04 00:48:05;;;;;;;4.55;2.00;;;;;;;;;;5002196;28;20062;-63
2022/09/04 00:50:47;;;;;;;4.55;2.10;;;;;;;;;;4994544;28;20045;-62
2022/09/04 00:53:23;;;;;;;5.88;3.22;;;;;;;;;;5000479;28;20057;-61
2022/09/04 00:55:56;;;;;;;4.10;2.22;;;;;;;;;;4994553;28;20104;-63
2022/09/04 00:58:41;;;;;;;5.50;2.17;;;;;;;;;;4990372;28;20061;-58
2022/09/04 01:01:11;;;;;;;5.70;2.42;;;;;;;;;;4974203;28;20058;-63
2022/09/04 01:03:58;;;;;;;3.97;1.80;;;;;;;;;;4971742;28;20069;-60
2022/09/04 01:06:31;;;;;;;4.03;2.20;;;;;;;;;;4991238;28;20059;-62
2022/09/04 01:09:16;;;;;;;4.18;2.08;;;;;;;;;;4984982;28;20058;-60
2022/09/04 01:11:48;;;;;;;3.95;2.08;;;;;;;;;;5026363;28;20045;-61
2022/09/04 01:14:18;;;;;;;4.38;1.92;;;;;;;;;;5010393;28;20096;-59
2022/09/04 01:16:47;;;;;;;4.07;2.00;;;;;;;;;;4988978;28;20062;-64
2022/09/04 01:19:23;;;;;;;4.53;1.90;;;;;;;;;;4991199;28;20056;-59
2022/09/04 01:22:00;;;;;;;3.20;1.63;;;;;;;;;;4999608;28;20112;-56
2022/09/04 01:24:38;;;;;;;3.92;2.25;;;;;;;;;;5010099;28;20073;-58
2022/09/04 01:27:08;;;;;;;5.13;2.50;;;;;;;;;;5003197;28;20050;-65
2022/09/04 01:29:41;;;;;;;3.30;2.13;;;;;;;;;;5010393;28;20064;-59
2022/09/04 01:32:09;;;;;;;6.53;2.67;;;;;;;;;;4997896;28;20159;-63
2022/09/04 01:34:41;;;;;;;4.45;2.10;;;;;;;;;;5010333;28;20058;-58
2022/09/04 01:37:14;;;;;;;4.25;2.15;;;;;;;;;;5006207;28;20124;-60
2022/09/04 01:39:44;;;;;;;5.88;2.05;;;;;;;;;;5008881;28;20096;-57
2022/09/04 01:42:17;;;;;;;4.38;2.08;;;;;;;;;;5010167;28;20050;-60
2022/09/04 01:44:43;;;;;;;9.38;3.25;;;;;;;;;;5003802;28;20046;-63
2022/09/04 01:47:15;;;;;;;3.33;2.00;;;;;;;;;;5008271;28;20046;-62
2022/09/04 01:49:44;;;;;;;8.70;3.25;;;;;;;;;;5003825;28;20128;-62
2022/09/04 01:52:23;;;;;;;5.10;2.47;;;;;;;;;;5022249;28;20140;-59
2022/09/04 01:54:52;;;;;;;5.07;2.40;;;;;;;;;;5013812;28;20068;-61
2022/09/04 01:57:30;;;;;;;4.35;2.08;;;;;;;;;;5008981;28;20060;-64
2022/09/04 02:00:04;;;;;;;5.60;2.05;;;;;;;;;;5003382;28;20054;-58
2022/09/04 02:02:33;;;;;;;4.95;2.53;;;;;;;;;;4990983;28;20241;-61
2022/09/04 02:05:04;;;;;;;7.85;3.92;;;;;;;;;;4987950;28;20046;-61
2022/09/04 02:07:38;;;;;;;8.18;4.60;;;;;;;;;;5005730;28;20050;-64
2022/09/04 02:10:08;;;;;;;5.03;2.40;;;;;;;;;;5009018;28;20100;-65
2022/09/04 02:12:49;;;;;;;4.70;2.35;;;;;;;;;;5002505;28;20052;-61
2022/09/04 02:15:21;;;;;;;5.20;2.42;;;;;;;;;;5007023;28;20085;-54
2022/09/04 02:17:52;;;;;;;8.68;4.60;;;;;;;;;;5002312;28;20046;-64
2022/09/04 02:20:23;;;;;;;6.25;2.35;;;;;;;;;;5009134;28;20096;-63
2022/09/04 02:22:54;;;;;;;7.40;3.97;;;;;;;;;;4994639;28;20065;-62
2022/09/04 02:25:26;;;;;;;8.20;2.50;;;;;;;;;;4989801;28;20046;-63
2022/09/04 02:28:03;;;;;;;7.80;3.83;;;;;;;;;;4984957;28;20050;-64
2022/09/04 02:30:32;;;;;;;9.07;3.70;;;;;;;;;;4990405;28;20061;-64
2022/09/04 02:32:58;;;;;;;;;;;;;;;;;;4991875;28;20058;-55
2022/09/04 02:35:30;;;;;;;7.38;1.90;;;;;;;;;;5007388;28;19922;-52
2022/09/04 02:38:03;;;;;;;6.70;3.55;;;;;;;;;;4998270;28;20050;-64
2022/09/04 02:40:32;;;;;;;6.95;3.50;;;;;;;;;;4989006;28;20053;-65
2022/09/04 02:43:06;;;;;;;9.77;4.57;;;;;;;;;;4983524;28;20062;-65
2022/09/04 02:45:36;;;;;;;10.40;3.85;;;;;;;;;;4988934;28;20143;-61
2022/09/04 02:48:06;;;;;;;5.78;2.90;;;;;;;;;;4983124;28;20137;-63
2022/09/04 02:53:57;;;;;;;7.88;4.53;;;;;;;;;;5470804;23;20128;-59
2022/09/04 02:56:30;;;;;;;6.22;3.33;;;;;;;;;;5007036;28;20049;-59
2022/09/04 02:59:15;;;;;;;4.55;2.53;;;;;;;;;;5009260;28;20053;-62
2022/09/04 03:01:45;;;;;;;5.05;2.83;;;;;;;;;;5007693;28;20069;-56
2022/09/04 03:05:03;;;;;;;;;;;;;;;;;;;;;
2022/09/04 03:07:36;;;;;;;4.07;2.13;;;;;;;;;;4973621;28;20050;-57
2022/09/04 03:10:07;;;;;;;9.55;5.20;;;;;;;;;;4989565;28;20077;-59
2022/09/04 03:12:37;;;;;;;7.03;2.95;;;;;;;;;;4991288;28;20058;-64
2022/09/04 03:15:09;;;;;;;8.82;3.72;;;;;;;;;;4990687;28;20050;-63
2022/09/04 03:17:45;;;;;;;11.48;4.63;;;;;;;;;;4991298;28;20108;-65
2022/09/04 03:20:14;;;;;;;9.88;4.57;;;;;;;;;;4991314;28;20058;-63
2022/09/04 03:22:44;;;;;;;6.40;2.85;;;;;;;;;;4991257;28;20042;-63
2022/09/04 03:25:33;;;;;;;10.27;5.22;;;;;;;;;;4990614;28;20057;-64
2022/09/04 03:28:01;;;;;;;10.45;5.45;;;;;;;;;;4989890;28;20053;-65
2022/09/04 03:30:31;;;;;;;11.40;5.22;;;;;;;;;;5007402;28;20038;-65
2022/09/04 03:33:04;;;;;;;5.85;2.53;;;;;;;;;;4981769;28;20061;-62
2022/09/04 03:35:35;;;;;;;11.00;4.80;;;;;;;;;;4990822;28;20058;-61
2022/09/04 03:38:08;;;;;;;5.55;2.80;;;;;;;;;;4991271;28;20064;-63
2022/09/04 03:40:36;;;;;;;7.43;3.42;;;;;;;;;;4991994;28;20053;-61
2022/09/04 03:43:20;;;;;;;6.15;3.65;;;;;;;;;;5007885;28;20153;-57
2022/09/04 03:45:51;;;;;;;6.38;3.55;;;;;;;;;;4989245;28;20065;-61
2022/09/04 03:48:26;;;;;;;5.22;2.28;;;;;;;;;;4990946;28;20050;-61
2022/09/04 03:50:57;;;;;;;5.32;2.50;;;;;;;;;;4991554;28;20050;-61
2022/09/04 03:53:28;;;;;;;6.57;2.60;;;;;;;;;;4992479;28;20077;-60
2022/09/04 03:56:04;;;;;;;7.25;3.30;;;;;;;;;;4991696;28;20060;-55
2022/09/04 03:58:38;;;;;;;6.65;3.42;;;;;;;;;;4992204;28;20081;-61
2022/09/04 04:01:12;;;;;;;4.78;2.47;;;;;;;;;;5006806;28;20083;-57
2022/09/04 04:03:56;;;;;;;5.07;2.38;;;;;;;;;;4991311;28;20062;-62
2022/09/04 04:06:29;;;;;;;5.13;2.38;;;;;;;;;;4990856;28;20060;-57
2022/09/04 04:09:04;;;;;;;5.97;2.35;;;;;;;;;;5005403;28;20087;-60
2022/09/04 04:11:55;;;;;;;7.70;3.75;;;;;;;;;;4990514;28;20065;-63
2022/09/04 04:14:29;;;;;;;8.52;4.00;;;;;;;;;;5007399;28;20058;-62
2022/09/04 04:17:05;;;;;;;4.57;2.20;;;;;;;;;;4990621;28;20144;-65
2022/09/04 04:19:46;;;;;;;7.50;3.65;;;;;;;;;;4991130;28;20046;-63
2022/09/04 04:22:25;;;;;;;9.23;4.75;;;;;;;;;;4990929;28;20065;-62
2022/09/04 04:25:01;;;;;;;9.52;4.93;;;;;;;;;;5007292;28;20050;-60
2022/09/04 04:27:35;;;;;;;5.38;2.80;;;;;;;;;;4991253;28;20053;-60
2022/09/04 04:30:06;;;;;;;4.63;2.58;;;;;;;;;;4990681;28;20061;-63
2022/09/04 04:32:48;;;;;;;6.75;2.70;;;;;;;;;;5006814;28;20053;-63
2022/09/04 04:35:23;;;;;;;5.55;2.30;;;;;;;;;;4998378;28;20052;-63
2022/09/04 04:37:55;;;;;;;7.30;3.33;;;;;;;;;;4990764;28;20128;-59
2022/09/04 04:40:29;;;;;;;6.18;2.85;;;;;;;;;;4989296;28;20054;-62
2022/09/04 04:43:00;;;;;;;6.78;2.65;;;;;;;;;;4990322;28;20152;-61
2022/09/04 04:48:15;;;;;;;;;;;;;;;;;;5007146;28;20073;-56
2022/09/04 04:50:48;;;;;;;10.82;3.30;;;;;;;;;;4991140;28;19948;-63
2022/09/04 04:53:18;;;;;;;5.32;2.67;;;;;;;;;;4990681;28;20054;-62
2022/09/04 04:55:49;;;;;;;5.38;2.47;;;;;;;;;;5023212;28;20053;-59
2022/09/04 04:58:24;;;;;;;6.40;2.40;;;;;;;;;;5024086;28;20061;-64
2022/09/04 05:00:57;;;;;;;5.25;2.28;;;;;;;;;;5026903;28;20058;-64
2022/09/04 05:03:31;;;;;;;5.60;2.75;;;;;;;;;;5026296;28;20064;-62
2022/09/04 05:06:00;;;;;;;6.90;3.13;;;;;;;;;;5026844;28;20058;-61
2022/09/04 05:08:33;;;;;;;12.13;5.82;;;;;;;;;;5026376;28;20060;-59
2022/09/04 05:11:02;;;;;;;11.63;5.55;;;;;;;;;;5018326;28;20049;-64
2022/09/04 05:13:33;;;;;;;5.05;2.60;;;;;;;;;;5026460;28;20053;-65
2022/09/04 05:16:03;;;;;;;7.60;3.88;;;;;;;;;;5010266;28;20053;-64
2022/09/04 05:18:31;;;;;;;6.30;2.40;;;;;;;;;;5027321;28;20050;-54
2022/09/04 05:21:06;;;;;;;12.55;6.00;;;;;;;;;;5026500;28;20054;-63
2022/09/04 05:23:37;;;;;;;5.93;2.63;;;;;;;;;;5026812;28;20096;-61
2022/09/04 05:26:10;;;;;;;5.85;2.78;;;;;;;;;;5026821;28;20061;-61
2022/09/04 05:28:44;;;;;;;4.78;2.30;;;;;;;;;;5008345;28;20060;-63
2022/09/04 05:31:14;;;;;;;5.38;2.53;;;;;;;;;;4993908;28;20050;-64
2022/09/04 05:33:45;;;;;;;11.82;6.40;;;;;;;;;;5026284;28;20034;-64
2022/09/04 05:36:19;;;;;;;6.68;2.90;;;;;;;;;;4994024;28;20069;-63
2022/09/04 05:38:53;;;;;;;4.40;2.25;;;;;;;;;;5025667;28;20056;-62
2022/09/04 05:41:30;;;;;;;5.75;2.40;;;;;;;;;;4994113;28;20054;-60
2022/09/04 05:44:05;;;;;;;4.97;2.60;;;;;;;;;;4993354;28;20065;-64
2022/09/04 05:46:39;;;;;;;5.45;2.40;;;;;;;;;;4992742;28;20053;-59
2022/09/04 05:49:12;;;;;;;5.35;2.60;;;;;;;;;;5025779;28;20053;-61
2022/09/04 05:51:52;;;;;;;4.43;2.05;;;;;;;;;;4993056;28;20054;-58
2022/09/04 05:54:30;;;;;;;5.55;2.63;;;;;;;;;;5015521;28;20055;-58
2022/09/04 05:57:04;;;;;;;5.35;2.58;;;;;;;;;;5028784;28;20050;-62
2022/09/04 05:59:55;;;;;;;5.97;3.00;;;;;;;;;;5027641;28;20060;-61
2022/09/04 06:02:30;;;;;;;6.18;2.88;;;;;;;;;;5041893;23;20075;-62
2022/09/04 06:05:10;;;;;;;7.10;2.50;;;;;;;;;;5042322;23;20056;-60
2022/09/04 06:07:42;;;;;;;6.40;2.75;;;;;;;;;;5051265;28;20088;-63
2022/09/04 06:10:15;;;;;;;6.43;2.40;;;;;;;;;;5051305;28;20063;-62
2022/09/04 06:13:03;;;;;;;5.70;3.08;;;;;;;;;;5052029;28;20060;-63
2022/09/04 06:15:42;;;;;;;9.98;4.82;;;;;;;;;;5052358;28;20079;-60
2022/09/04 06:18:15;;;;;;;7.30;3.80;;;;;;;;;;5051452;28;20048;-59
2022/09/04 06:21:01;;;;;;;8.50;3.15;;;;;;;;;;5068238;28;20052;-64
2022/09/04 06:23:36;;;;;;;10.27;5.03;;;;;;;;;;5051466;28;20048;-62
2022/09/04 06:26:21;;;;;;;12.55;5.03;;;;;;;;;;5052689;28;20060;-63
2022/09/04 06:29:00;;;;;;;15.45;6.60;;;;;;;;;;5052802;28;20056;-62
2022/09/04 06:31:43;;;;;;;11.57;5.60;;;;;;;;;;5050641;28;20086;-58
2022/09/04 06:34:12;;;;;;;17.48;6.32;;;;;;;;;;5030851;28;20053;-61
2022/09/04 06:36:45;;;;;;;14.18;7.10;;;;;;;;;;5051559;28;20057;-62
2022/09/04 06:39:24;;;;;;;6.80;3.25;;;;;;;;;;5068476;28;20056;-64
2022/09/04 06:42:00;;;;;;;8.35;4.53;;;;;;;;;;5050527;28;20062;-64
2022/09/04 06:44:35;;;;;;;6.35;2.55;;;;;;;;;;5067563;28;20057;-64
2022/09/04 06:47:10;;;;;;;5.22;2.70;;;;;;;;;;5051544;28;20155;-61
2022/09/04 06:49:43;;;;;;;7.07;2.60;;;;;;;;;;5051778;28;20131;-57
2022/09/04 06:52:15;;;;;;;6.63;2.92;;;;;;;;;;5052529;28;20055;-54
2022/09/04 06:54:47;;;;;;;7.10;3.13;;;;;;;;;;5051502;28;20071;-61
2022/09/04 06:57:28;;;;;;;14.45;7.18;;;;;;;;;;5050941;28;20075;-63
2022/09/04 07:00:00;;;;;;;7.80;4.15;;;;;;;;;;5051596;28;20052;-57
2022/09/04 07:02:39;;;;;;;7.32;2.80;;;;;;;;;;5050890;28;20048;-62
2022/09/04 07:05:15;;;;;;;8.85;3.97;;;;;;;;;;5069436;28;20056;-60
2022/09/04 07:07:51;;;;;;;15.30;7.70;;;;;;;;;;5048957;28;20056;-59
2022/09/04 07:10:22;;;;;;;7.13;3.75;;;;;;;;;;5050823;28;20090;-56
2022/09/04 07:13:09;;;;;;;13.02;6.13;;;;;;;;;;5051252;28;20048;-64
2022/09/04 07:16:09;;;;;;;5.82;2.65;;;;;;;;;;5051999;28;20109;-57
2022/09/04 07:18:53;;;;;;;8.63;3.67;;;;;;;;;;5008186;28;20052;-61
2022/09/04 07:21:23;;;;;;;9.15;5.30;;;;;;;;;;5049251;28;20059;-63
2022/09/04 07:23:54;;;;;;;14.00;7.70;;;;;;;;;;5067298;28;20066;-62
2022/09/04 07:26:27;;;;;;;8.02;4.38;;;;;;;;;;5051060;28;20057;-62
2022/09/04 07:29:09;;;;;;;7.47;3.22;;;;;;;;;;5051350;28;20052;-62
2022/09/04 07:31:38;;;;;;;8.50;3.83;;;;;;;;;;5050927;28;20046;-63
2022/09/04 07:34:08;;;;;;;6.43;3.35;;;;;;;;;;5051928;28;20057;-62
2022/09/04 07:36:38;;;;;;;9.63;5.18;;;;;;;;;;5053530;28;20052;-57
2022/09/04 07:39:10;;;;;;;8.23;3.33;;;;;;;;;;5071320;28;20067;-59
2022/09/04 07:41:47;;;;;;;12.52;6.55;;;;;;;;;;5055922;28;20048;-63
2022/09/04 07:44:15;;;;;;;7.45;4.05;;;;;;;;;;5072455;28;20140;-64
2022/09/04 07:46:46;;;;;;;7.13;3.30;;;;;;;;;;5051455;28;20056;-62
2022/09/04 07:49:18;;;;;;;14.90;6.20;;;;;;;;;;5050226;28;20167;-65
2022/09/04 07:51:46;;;;;;;16.23;8.32;;;;;;;;;;5051181;28;20056;-65
2022/09/04 07:54:38;;;;;;;15.82;8.35;;;;;;;;;;5050474;28;20113;-65
2022/09/04 07:57:20;;;;;;;11.95;5.53;;;;;;;;;;5050801;28;20049;-65
2022/09/04 08:00:08;;;;;;;15.18;6.90;;;;;;;;;;5050674;28;20068;-64
2022/09/04 08:02:49;;;;;;;9.97;4.87;;;;;;;;;;5045055;28;20052;-65
2022/09/04 08:05:24;;;;;;;12.93;7.00;;;;;;;;;;5051775;28;20049;-65
2022/09/04 08:08:02;;;;;;;9.98;4.20;;;;;;;;;;5050646;28;20049;-62
2022/09/04 08:10:31;;;;;;;12.18;4.80;;;;;;;;;;5067154;28;20134;-64
2022/09/04 08:13:21;;;;;;;7.85;4.15;;;;;;;;;;5064921;28;20060;-63
2022/09/04 08:15:53;;;;;;;8.77;4.65;;;;;;;;;;5050555;28;20065;-65
2022/09/04 08:18:35;;;;;;;14.13;6.65;;;;;;;;;;5050639;28;20075;-65
2022/09/04 08:21:08;;;;;;;11.27;5.40;;;;;;;;;;5065155;28;20052;-64
2022/09/04 08:23:53;;;;;;;14.63;6.85;;;;;;;;;;5049960;28;20045;-64
2022/09/04 08:26:26;;;;;;;11.52;6.43;;;;;;;;;;5065621;28;20139;-60
2022/09/04 08:29:01;;;;;;;12.90;5.97;;;;;;;;;;5046705;28;20148;-62
2022/09/04 08:31:30;;;;;;;8.88;4.72;;;;;;;;;;5046719;28;20055;-64
2022/09/04 08:34:06;;;;;;;12.23;6.18;;;;;;;;;;5050892;28;20048;-65
2022/09/04 08:36:37;;;;;;;11.35;5.35;;;;;;;;;;5070177;28;20095;-61
2022/09/04 08:39:07;;;;;;;13.18;6.22;;;;;;;;;;5069669;28;20056;-62
2022/09/04 08:41:58;;;;;;;12.88;6.50;;;;;;;;;;5053186;28;20059;-62
2022/09/04 08:44:52;;;;;;;10.32;5.85;;;;;;;;;;5068138;28;20064;-60
2022/09/04 08:47:37;;;;;;;11.90;5.82;;;;;;;;;;5042757;28;20057;-58
2022/09/04 08:50:12;;;;;;;12.05;6.00;;;;;;;;;;5053872;28;20143;-55
2022/09/04 08:52:53;;;;;;;14.38;6.20;;;;;;;;;;5069813;28;20060;-57
2022/09/04 08:55:37;;;;;;;11.25;5.47;;;;;;;;;;5052975;28;20060;-54
2022/09/04 08:58:25;;;;;;;12.73;5.97;;;;;;;;;;5069708;28;20127;-62
2022/09/04 09:01:03;;;;;;;16.20;6.50;;;;;;;;;;5069582;28;20072;-59
2022/09/04 09:03:48;;;;;;;13.43;6.85;;;;;;;;;;5053113;28;20044;-62
2022/09/04 09:06:25;;;;;;;11.95;6.45;;;;;;;;;;5047980;28;20076;-57
2022/09/04 09:09:22;;;;;;;10.07;4.97;;;;;;;;;;5050028;28;20092;-57
2022/09/04 09:12:10;;;;;;;13.70;6.18;;;;;;;;;;5048749;28;20053;-58
2022/09/04 09:15:00;;;;;;;12.57;5.97;;;;;;;;;;5041612;28;20056;-58
2022/09/04 09:17:37;;;;;;;12.45;5.85;;;;;;;;;;5049534;28;20309;-58
2022/09/04 09:20:14;;;;;;;13.25;6.28;;;;;;;;;;5049109;28;20044;-58
2022/09/04 09:22:50;;;;;;;12.40;6.75;;;;;;;;;;5050085;28;20045;-59
2022/09/04 09:25:19;;;;;;;12.48;6.22;;;;;;;;;;5049423;28;20080;-54
2022/09/04 09:28:07;;;;;;;13.60;6.18;;;;;;;;;;5049761;28;20132;-51
2022/09/04 09:30:39;;;;;;;10.02;4.82;;;;;;;;;;5063147;28;20049;-52
2022/09/04 09:33:23;;;;;;;9.65;4.93;;;;;;;;;;5049939;28;20059;-54
2022/09/04 09:36:05;;;;;;;9.60;4.93;;;;;;;;;;5049203;28;20057;-55
2022/09/04 09:38:53;;;;;;;10.38;5.45;;;;;;;;;;5049052;28;20052;-51
2022/09/04 09:41:37;;;;;;;10.60;4.85;;;;;;;;;;5049249;28;20049;-54
2022/09/04 09:44:23;;;;;;;12.10;5.30;;;;;;;;;;5048981;28;20048;-51
2022/09/04 09:47:06;;;;;;;10.20;4.82;;;;;;;;;;5049004;28;20056;-53
2022/09/04 09:49:42;;;;;;;8.88;5.07;;;;;;;;;;5049170;28;20069;-49
2022/09/04 09:52:20;;;;;;;13.80;5.78;;;;;;;;;;5048017;28;20065;-53
2022/09/04 09:55:08;;;;;;;12.10;4.55;;;;;;;;;;5049625;28;20231;-50
2022/09/04 09:57:44;;;;;;;6.15;3.50;;;;;;;;;;5049875;28;20136;-51
2022/09/04 10:00:12;;;;;;;9.20;4.00;;;;;;;;;;5049190;28;20072;-53
2022/09/04 10:02:57;;;;;;;9.32;3.90;;;;;;;;;;5048037;28;20052;-54
2022/09/04 10:05:51;;;;;;;7.60;3.70;;;;;;;;;;5051970;28;20056;-53
2022/09/04 10:08:36;;;;;;;11.02;3.80;;;;;;;;;;5005987;28;20056;-54
2022/09/04 10:11:15;;;;;;;5.30;2.90;;;;;;;;;;5051908;28;20062;-52
2022/09/04 10:14:00;;;;;;;10.88;4.55;;;;;;;;;;5051961;28;20048;-51
2022/09/04 10:16:45;;;;;;;8.77;4.03;;;;;;;;;;5066924;28;20159;-51
2022/09/04 10:19:45;;;;;;;12.77;5.72;;;;;;;;;;5068493;28;20058;-50
2022/09/04 10:22:30;;;;;;;15.80;5.80;;;;;;;;;;5069106;28;20048;-52
2022/09/04 10:25:16;;;;;;;10.55;4.30;;;;;;;;;;5051983;28;20060;-55
2022/09/04 10:27:56;;;;;;;9.00;3.97;;;;;;;;;;5051910;28;20226;-54
2022/09/04 10:30:23;;;;;;;10.95;3.70;;;;;;;;;;5051834;28;20056;-52
2022/09/04 10:33:09;;;;;;;7.90;3.10;;;;;;;;;;5051587;28;20045;-55
2022/09/04 10:35:40;;;;;;;10.10;3.92;;;;;;;;;;5065870;28;20045;-51
2022/09/04 10:38:25;;;;;;;7.07;3.55;;;;;;;;;;5051401;28;20105;-53
2022/09/04 10:41:18;;;;;;;10.02;3.70;;;;;;;;;;5051802;28;20044;-52
2022/09/04 10:44:08;;;;;;;9.88;3.47;;;;;;;;;;5004941;28;20222;-52
2022/09/04 10:46:42;;;;;;;7.88;3.95;;;;;;;;;;4977968;28;20046;-65
2022/09/04 10:49:37;;;;;;;10.10;3.60;;;;;;;;;;5067569;28;20121;-63
2022/09/04 10:52:09;;;;;;;11.25;4.18;;;;;;;;;;5068069;28;20048;-61
2022/09/04 10:54:46;;;;;;;6.15;3.25;;;;;;;;;;5068305;28;20055;-62
2022/09/04 10:57:23;;;;;;;7.15;3.58;;;;;;;;;;5049603;28;20109;-66
2022/09/04 10:59:59;;;;;;;7.43;2.90;;;;;;;;;;5082444;28;20068;-66
2022/09/04 11:02:40;;;;;;;8.05;3.53;;;;;;;;;;5065905;28;20044;-63
2022/09/04 11:05:26;;;;;;;5.40;2.70;;;;;;;;;;5066996;28;20052;-64
2022/09/04 11:08:05;;;;;;;7.78;3.15;;;;;;;;;;5067081;28;20064;-62
2022/09/04 11:10:46;;;;;;;7.22;3.15;;;;;;;;;;5058245;28;20078;-65
2022/09/04 11:13:28;;;;;;;6.43;2.80;;;;;;;;;;5067768;28;20052;-64
2022/09/04 11:16:18;;;;;;;8.20;3.17;;;;;;;;;;5064848;28;20056;-65
2022/09/04 11:19:01;;;;;;;5.43;2.55;;;;;;;;;;5067697;28;20056;-55
2022/09/04 11:21:48;;;;;;;9.52;4.10;;;;;;;;;;5065984;28;20056;-55
2022/09/04 11:24:34;;;;;;;5.75;2.45;;;;;;;;;;5061377;28;20161;-64
2022/09/04 11:27:19;;;;;;;6.57;3.10;;;;;;;;;;5067468;28;20086;-66
2022/09/04 11:29:54;;;;;;;5.43;2.20;;;;;;;;;;5060865;28;20147;-60
2022/09/04 11:32:30;;;;;;;6.30;2.60;;;;;;;;;;5065954;28;20063;-63
2022/09/04 11:35:21;;;;;;;5.85;2.70;;;;;;;;;;5068139;28;20056;-64
2022/09/04 11:38:07;;;;;;;6.05;2.72;;;;;;;;;;5067259;28;20118;-64
2022/09/04 11:41:01;;;;;;;10.55;3.55;;;;;;;;;;5058296;28;20052;-65
2022/09/04 11:43:49;;;;;;;4.80;2.15;;;;;;;;;;5066061;28;20052;-62
2022/09/04 11:46:25;;;;;;;6.32;2.30;;;;;;;;;;5033685;28;20052;-63
2022/09/04 11:49:12;;;;;;;16.08;3.03;;;;;;;;;;5065631;28;20136;-65
2022/09/04 11:51:59;;;;;;;7.95;2.78;;;;;;;;;;5067126;28;20056;-60
2022/09/04 11:54:46;;;;;;;6.80;2.67;;;;;;;;;;5067389;28;20048;-57
2022/09/04 11:57:16;;;;;;;3.95;2.15;;;;;;;;;;5060932;28;20059;-59
2022/09/04 12:00:07;;;;;;;7.38;3.40;;;;;;;;;;5067725;28;20044;-66
2022/09/04 12:02:46;;;;;;;4.75;2.15;;;;;;;;;;5052076;28;20041;-65
2022/09/04 12:05:18;;;;;;;6.07;2.17;;;;;;;;;;5066295;28;20048;-62
2022/09/04 12:08:02;;;;;;;5.93;2.28;;;;;;;;;;5022404;28;20064;-66
2022/09/04 12:10:42;;;;;;;4.45;2.03;;;;;;;;;;5031540;28;20115;-64
2022/09/04 12:13:27;;;;;;;4.43;2.40;;;;;;;;;;5031593;28;20049;-68
2022/09/04 12:16:12;;;;;;;8.38;2.53;;;;;;;;;;5031218;28;20057;-66
2022/09/04 12:18:54;;;;;;;5.30;1.98;;;;;;;;;;5031279;28;20054;-56
2022/09/04 12:21:39;;;;;;;5.90;2.20;;;;;;;;;;5031044;28;20124;-66
2022/09/04 12:24:23;;;;;;;4.93;2.08;;;;;;;;;;5030746;28;20052;-59
2022/09/04 12:26:58;;;;;;;4.45;1.90;;;;;;;;;;5029917;28;20053;-60
2022/09/04 12:29:44;;;;;;;7.53;2.00;;;;;;;;;;5031200;28;20045;-61
2022/09/04 12:32:41;;;;;;;5.18;1.80;;;;;;;;;;5041238;28;20052;-64
2022/09/04 12:35:26;;;;;;;5.97;2.20;;;;;;;;;;5047550;28;20058;-62
2022/09/04 12:38:13;;;;;;;5.32;2.58;;;;;;;;;;5046498;28;20056;-64
2022/09/04 12:40:44;;;;;;;4.85;1.90;;;;;;;;;;5046423;28;20052;-67
2022/09/04 12:43:19;;;;;;;6.93;2.00;;;;;;;;;;5030342;28;20057;-65
2022/09/04 12:45:55;;;;;;;4.50;2.10;;;;;;;;;;5023816;28;20045;-65
2022/09/04 12:48:31;;;;;;;2.88;1.63;;;;;;;;;;5029470;28;20056;-56
2022/09/04 12:51:01;;;;;;;7.82;1.85;;;;;;;;;;5027684;28;20053;-59
2022/09/04 12:53:35;;;;;;;3.80;1.67;;;;;;;;;;5047536;28;20046;-63
2022/09/04 12:56:09;;;;;;;3.78;1.80;;;;;;;;;;5030301;28;20055;-63
2022/09/04 12:58:49;;;;;;;5.00;1.80;;;;;;;;;;5029517;28;20059;-67
2022/09/04 13:03:58;;;;;;;3.17;1.65;;;;;;;;;;5057870;23;20140;-59
2022/09/04 13:06:43;;;;;;;3.70;1.67;;;;;;;;;;5051042;28;20061;-63
2022/09/04 13:09:16;;;;;;;5.22;1.80;;;;;;;;;;5042713;28;20128;-67
2022/09/04 13:11:51;;;;;;;2.97;1.50;;;;;;;;;;5050076;28;20053;-62
2022/09/04 13:14:32;;;;;;;2.95;1.58;;;;;;;;;;5050129;28;20158;-63
2022/09/04 13:17:02;;;;;;;2.78;1.50;;;;;;;;;;5049577;28;20165;-63
2022/09/04 13:19:34;;;;;;;3.10;1.60;;;;;;;;;;5049093;28;20057;-64
2022/09/04 13:22:09;;;;;;;3.25;1.27;;;;;;;;;;5066634;28;20041;-66
2022/09/04 13:24:42;;;;;;;2.65;1.50;;;;;;;;;;5051300;28;20045;-68
2022/09/04 13:27:15;;;;;;;3.47;1.60;;;;;;;;;;5055684;28;20072;-60
2022/09/04 13:29:50;;;;;;;2.35;1.52;;;;;;;;;;5050135;28;20053;-62
2022/09/04 13:32:31;;;;;;;2.88;1.30;;;;;;;;;;5059600;28;20067;-60
2022/09/04 13:35:07;;;;;;;4.95;1.95;;;;;;;;;;5056391;28;20069;-60
2022/09/04 13:37:44;;;;;;;3.37;1.43;;;;;;;;;;5043410;28;20059;-66
2022/09/04 13:40:31;;;;;;;2.47;1.52;;;;;;;;;;5050598;28;20057;-64
2022/09/04 13:43:16;;;;;;;3.42;1.48;;;;;;;;;;5024823;28;20061;-63
2022/09/04 13:45:47;;;;;;;5.63;1.50;;;;;;;;;;5049270;28;20253;-56
2022/09/04 13:48:16;;;;;;;2.22;1.30;;;;;;;;;;5048641;28;20106;-58
2022/09/04 13:50:46;;;;;;;3.95;1.40;;;;;;;;;;5049029;28;20068;-54
2022/09/04 13:53:17;;;;;;;3.13;1.52;;;;;;;;;;5065978;28;20064;-56
2022/09/04 13:55:46;;;;;;;3.03;1.40;;;;;;;;;;5049437;28;20049;-59
2022/09/04 13:58:18;;;;;;;2.25;1.30;;;;;;;;;;5049205;28;20053;-58
2022/09/04 14:00:48;;;;;;;2.92;1.30;;;;;;;;;;5049387;28;20052;-56
2022/09/04 14:03:19;;;;;;;4.35;1.80;;;;;;;;;;5014860;28;20064;-58
2022/09/04 14:05:45;;;;;;;2.65;1.33;;;;;;;;;;5009636;28;20049;-61
2022/09/04 14:08:15;;;;;;;2.65;1.35;;;;;;;;;;5009370;28;20112;-66
2022/09/04 14:10:54;;;;;;;3.78;2.10;;;;;;;;;;5031565;28;20103;-64
2022/09/04 14:13:27;;;;;;;2.90;1.50;;;;;;;;;;5033106;28;20037;-66
2022/09/04 14:16:05;;;;;;;3.10;1.50;;;;;;;;;;5032585;28;20071;-52
2022/09/04 14:18:52;;;;;;;4.68;1.55;;;;;;;;;;5032257;28;20076;-58
2022/09/04 14:21:34;;;;;;;2.40;1.38;;;;;;;;;;5029349;28;20049;-66
2022/09/04 14:24:05;;;;;;;4.00;1.80;;;;;;;;;;5030073;28;20126;-51
2022/09/04 14:26:38;;;;;;;3.30;1.40;;;;;;;;;;5022607;28;20060;-63
2022/09/04 14:29:15;;;;;;;2.50;1.35;;;;;;;;;;5023633;28;20148;-65
2022/09/04 14:31:52;;;;;;;4.20;1.63;;;;;;;;;;5031392;28;20053;-64
2022/09/04 14:34:27;;;;;;;4.72;1.63;;;;;;;;;;5022831;28;20053;-60
2022/09/04 14:36:58;;;;;;;3.53;1.80;;;;;;;;;;5015210;28;20088;-59
2022/09/04 14:39:34;;;;;;;3.97;1.73;;;;;;;;;;5008402;28;20052;-56
2022/09/04 14:42:18;;;;;;;2.22;1.40;;;;;;;;;;5029991;28;20134;-67
2022/09/04 14:44:51;;;;;;;1.88;1.38;;;;;;;;;;5030654;28;20142;-66
2022/09/04 14:47:25;;;;;;;4.18;1.58;;;;;;;;;;5031496;28;20064;-64
2022/09/04 14:49:54;;;;;;;4.78;1.50;;;;;;;;;;5031940;28;20083;-64
2022/09/04 14:52:26;;;;;;;5.93;1.70;;;;;;;;;;5031566;28;20056;-62
2022/09/04 14:54:54;;;;;;;5.75;1.90;;;;;;;;;;5031536;28;20057;-66
2022/09/04 14:57:25;;;;;;;3.72;1.55;;;;;;;;;;5031816;28;20067;-65
2022/09/04 14:59:59;;;;;;;2.25;1.30;;;;;;;;;;5031291;28;20081;-65
2022/09/04 15:02:32;;;;;;;2.97;1.48;;;;;;;;;;5049419;23;20063;-64
2022/09/04 15:05:00;;;;;;;5.07;1.65;;;;;;;;;;5026826;28;20049;-60
2022/09/04 15:07:49;;;;;;;3.65;1.50;;;;;;;;;;5041210;28;20230;-62
2022/09/04 15:10:18;;;;;;;3.83;1.55;;;;;;;;;;5046965;28;20059;-62
2022/09/04 15:12:49;;;;;;;5.30;1.95;;;;;;;;;;5048602;28;20053;-63
2022/09/04 15:15:19;;;;;;;3.30;1.65;;;;;;;;;;5049125;28;20068;-65
2022/09/04 15:17:53;;;;;;;6.20;1.50;;;;;;;;;;5042674;28;20143;-59
2022/09/04 15:20:22;;;;;;;7.10;1.92;;;;;;;;;;5054217;28;20076;-64
2022/09/04 15:22:51;;;;;;;5.30;1.70;;;;;;;;;;5045578;28;20045;-54
2022/09/04 15:30:30;;;;;;;4.13;1.50;;;;;;;;;;5847713;22;20081;-64
2022/09/04 15:33:04;;;;;;;3.40;1.60;;;;;;;;;;5031996;28;20140;-63
2022/09/04 15:35:31;;;;;;;5.38;1.83;;;;;;;;;;5057339;28;20048;-67
2022/09/04 15:38:05;;;;;;;4.05;2.03;;;;;;;;;;5050160;28;20053;-60
2022/09/04 15:40:33;;;;;;;3.95;1.85;;;;;;;;;;5049741;28;20057;-64
2022/09/04 15:43:07;;;;;;;4.18;1.80;;;;;;;;;;5051918;28;20064;-57
2022/09/04 15:45:39;;;;;;;13.05;2.30;;;;;;;;;;5048828;28;20049;-57
2022/09/04 15:48:23;;;;;;;5.57;2.03;;;;;;;;;;5053188;28;20136;-64
2022/09/04 15:50:59;;;;;;;6.10;2.00;;;;;;;;;;5049707;28;20048;-60